Time;durP1;ratioP1;P1;durP2;ratioP2;P2;SDS_P1;SDS_P2;PMS_P1;PMS_P2;Temp;Humidity;BMP_temperature;BMP_pressure;BME280_temperature;BME280_humidity;BME280_pressure;Samples;Min_cycle;Max_cycle;Signal;HPM_P1;HPM_P2
2023/09/27 00:00:15;;;;;;;1.10;0.75;;;15.60;86.60;;;;;;4951377;28;20047;-70
2023/09/27 00:02:45;;;;;;;0.00;0.00;;;15.70;86.50;;;;;;4952824;28;20043;-71
2023/09/27 00:05:12;;;;;;;0.00;0.00;;;15.60;86.60;;;;;;4959059;28;20055;-71
2023/09/27 00:07:39;;;;;;;0.10;0.10;;;15.60;86.50;;;;;;4971971;28;20046;-70
2023/09/27 00:10:09;;;;;;;0.00;0.00;;;15.60;86.60;;;;;;4971778;28;20431;-70
2023/09/27 00:12:35;;;;;;;0.00;0.00;;;15.60;86.70;;;;;;4971605;28;20058;-70
2023/09/27 00:15:01;;;;;;;2.10;0.40;;;15.70;86.70;;;;;;4970579;28;20511;-70
2023/09/27 00:17:28;;;;;;;0.00;0.00;;;15.70;86.60;;;;;;4971796;28;20121;-71
2023/09/27 00:19:54;;;;;;;0.00;0.00;;;15.70;86.60;;;;;;4971524;28;20427;-71
2023/09/27 00:22:19;;;;;;;0.00;0.00;;;15.70;86.60;;;;;;4971583;28;20050;-70
2023/09/27 00:24:45;;;;;;;0.00;0.00;;;15.80;86.40;;;;;;4970471;28;20082;-70
2023/09/27 00:27:11;;;;;;;0.00;0.00;;;15.70;86.40;;;;;;4970660;28;20047;-71
2023/09/27 00:29:37;;;;;;;0.00;0.00;;;15.80;86.40;;;;;;4971533;28;20089;-71
2023/09/27 00:32:02;;;;;;;0.00;0.00;;;15.80;86.40;;;;;;4971303;28;20046;-71
2023/09/27 00:34:28;;;;;;;0.00;0.00;;;15.80;86.50;;;;;;4970140;28;20141;-70
2023/09/27 00:36:54;;;;;;;0.03;0.03;;;15.80;86.40;;;;;;4970163;28;20043;-71
2023/09/27 00:39:20;;;;;;;0.08;0.08;;;15.70;86.50;;;;;;4971386;28;20054;-71
2023/09/27 00:41:45;;;;;;;0.10;0.10;;;15.80;86.50;;;;;;4971215;28;20055;-70
2023/09/27 00:44:11;;;;;;;0.10;0.10;;;15.70;86.40;;;;;;4970486;28;20439;-71
2023/09/27 00:46:37;;;;;;;0.00;0.00;;;15.70;86.30;;;;;;4970829;28;20046;-71
2023/09/27 00:49:04;;;;;;;0.00;0.00;;;15.70;86.30;;;;;;4971421;28;20043;-70
2023/09/27 00:51:32;;;;;;;0.00;0.00;;;15.70;86.40;;;;;;4972318;28;20046;-70
2023/09/27 00:53:58;;;;;;;0.00;0.00;;;15.70;86.30;;;;;;4953602;28;20629;-70
2023/09/27 00:56:25;;;;;;;0.00;0.00;;;15.70;86.30;;;;;;4970236;28;20101;-70
2023/09/27 00:58:52;;;;;;;0.00;0.00;;;15.70;86.30;;;;;;4952058;28;20718;-70
2023/09/27 01:01:18;;;;;;;0.00;0.00;;;15.70;86.30;;;;;;4966533;28;20093;-70
2023/09/27 01:03:44;;;;;;;0.00;0.00;;;15.70;86.30;;;;;;4971288;28;20078;-70
2023/09/27 01:06:12;;;;;;;0.00;0.00;;;15.70;86.30;;;;;;4971026;28;20133;-70
2023/09/27 01:08:37;;;;;;;0.00;0.00;;;15.70;86.20;;;;;;4954135;28;20251;-70
2023/09/27 01:11:05;;;;;;;0.00;0.00;;;15.70;86.20;;;;;;4969973;28;20141;-70
2023/09/27 01:13:31;;;;;;;0.00;0.00;;;15.70;86.10;;;;;;4970764;28;20043;-69
2023/09/27 01:15:57;;;;;;;0.00;0.00;;;15.60;86.00;;;;;;4970591;28;20039;-69
2023/09/27 01:18:25;;;;;;;0.00;0.00;;;15.70;85.90;;;;;;4970127;28;20043;-69
2023/09/27 01:20:51;;;;;;;0.00;0.00;;;15.60;85.90;;;;;;4970394;28;20137;-69
2023/09/27 01:23:16;;;;;;;0.00;0.00;;;15.60;85.90;;;;;;4970505;28;20137;-70
2023/09/27 01:25:42;;;;;;;0.00;0.00;;;15.60;85.80;;;;;;4970610;28;20058;-70
2023/09/27 01:28:10;;;;;;;0.00;0.00;;;15.60;85.80;;;;;;4970285;28;20040;-69
2023/09/27 01:30:37;;;;;;;0.00;0.00;;;15.60;85.70;;;;;;4970330;28;20404;-70
2023/09/27 01:33:10;;;;;;;0.00;0.00;;;15.60;85.70;;;;;;4970569;28;20042;-69
2023/09/27 01:35:40;;;;;;;0.00;0.00;;;15.50;85.70;;;;;;4970701;28;20089;-70
2023/09/27 01:38:07;;;;;;;0.00;0.00;;;15.50;85.70;;;;;;4965687;28;20034;-70
2023/09/27 01:40:35;;;;;;;0.00;0.00;;;15.50;85.80;;;;;;4970739;28;20054;-70
2023/09/27 01:43:02;;;;;;;0.00;0.00;;;15.60;85.80;;;;;;4970419;28;20085;-69
2023/09/27 01:45:29;;;;;;;0.00;0.00;;;15.50;85.80;;;;;;4970115;28;20086;-69
2023/09/27 01:47:55;;;;;;;0.00;0.00;;;15.50;85.90;;;;;;4969056;28;20165;-70
2023/09/27 01:50:24;;;;;;;0.00;0.00;;;15.50;85.90;;;;;;4968743;28;21080;-69
2023/09/27 01:52:50;;;;;;;0.00;0.00;;;15.40;85.90;;;;;;4970489;28;20042;-69
2023/09/27 01:55:16;;;;;;;0.00;0.00;;;15.40;86.00;;;;;;4970700;28;20093;-70
2023/09/27 01:57:42;;;;;;;0.00;0.00;;;15.40;86.00;;;;;;4970255;28;20059;-70
2023/09/27 02:00:11;;;;;;;0.00;0.00;;;15.40;85.90;;;;;;4970292;28;20106;-70
2023/09/27 02:02:59;;;;;;;0.00;0.00;;;15.40;85.90;;;;;;4970318;28;20043;-69
2023/09/27 02:05:26;;;;;;;0.10;0.10;;;15.30;86.00;;;;;;4969798;28;20042;-70
2023/09/27 02:07:52;;;;;;;0.00;0.00;;;15.30;86.00;;;;;;4952324;28;20090;-69
2023/09/27 02:10:18;;;;;;;0.00;0.00;;;15.30;86.00;;;;;;4950868;28;20582;-70
2023/09/27 02:12:44;;;;;;;0.00;0.00;;;15.30;86.00;;;;;;4950570;28;20381;-70
2023/09/27 02:15:11;;;;;;;0.00;0.00;;;15.30;86.00;;;;;;4953561;28;20537;-70
2023/09/27 02:17:39;;;;;;;0.20;0.20;;;15.30;86.00;;;;;;4970339;28;20043;-69
2023/09/27 02:20:07;;;;;;;0.00;0.00;;;15.30;86.10;;;;;;4968815;28;20403;-70
2023/09/27 02:22:33;;;;;;;0.00;0.00;;;15.30;86.00;;;;;;4970774;28;20106;-69
2023/09/27 02:24:59;;;;;;;0.00;0.00;;;15.20;86.00;;;;;;4973878;28;20114;-70
2023/09/27 02:27:25;;;;;;;0.00;0.00;;;15.20;86.10;;;;;;4973696;28;20515;-70
2023/09/27 02:29:50;;;;;;;0.00;0.00;;;15.20;86.10;;;;;;4973958;28;20130;-69
2023/09/27 02:32:17;;;;;;;0.00;0.00;;;15.20;86.00;;;;;;4974054;28;20141;-69
2023/09/27 02:34:43;;;;;;;0.73;0.13;;;15.10;86.00;;;;;;4973875;28;20422;-70
2023/09/27 02:37:09;;;;;;;0.10;0.10;;;15.10;86.20;;;;;;4973377;28;20039;-70
2023/09/27 02:39:34;;;;;;;0.00;0.00;;;15.10;86.20;;;;;;4973585;28;20066;-69
2023/09/27 02:42:00;;;;;;;0.00;0.00;;;15.10;86.30;;;;;;4973482;28;20073;-70
2023/09/27 02:44:26;;;;;;;0.00;0.00;;;15.00;86.10;;;;;;4973786;28;20047;-69
2023/09/27 02:46:55;;;;;;;0.00;0.00;;;15.00;86.00;;;;;;4973388;28;20053;-69
2023/09/27 02:49:21;;;;;;;0.00;0.00;;;15.00;86.00;;;;;;4973350;28;20054;-69
2023/09/27 02:51:47;;;;;;;0.00;0.00;;;15.00;86.00;;;;;;4973327;28;20043;-69
2023/09/27 02:54:14;;;;;;;0.00;0.00;;;14.90;86.20;;;;;;4972281;28;20039;-69
2023/09/27 02:56:43;;;;;;;0.00;0.00;;;14.90;86.40;;;;;;4972943;28;20093;-69
2023/09/27 02:59:11;;;;;;;0.00;0.00;;;14.90;86.40;;;;;;4972980;28;20038;-70
2023/09/27 03:01:41;;;;;;;0.00;0.00;;;14.90;86.50;;;;;;4972717;28;20118;-70
2023/09/27 03:04:08;;;;;;;0.00;0.00;;;14.80;86.60;;;;;;4972577;28;20054;-69
2023/09/27 03:06:35;;;;;;;0.00;0.00;;;14.80;86.70;;;;;;4972609;28;20053;-70
2023/09/27 03:09:01;;;;;;;0.00;0.00;;;14.80;86.60;;;;;;4972556;28;20496;-69
2023/09/27 03:11:26;;;;;;;0.35;0.35;;;14.70;86.40;;;;;;4972732;28;20050;-69
2023/09/27 03:13:52;;;;;;;0.00;0.00;;;14.70;86.30;;;;;;4972913;28;20078;-69
2023/09/27 03:16:18;;;;;;;0.00;0.00;;;14.70;86.20;;;;;;4967226;28;20053;-69
2023/09/27 03:18:43;;;;;;;0.10;0.10;;;14.60;86.10;;;;;;4972944;28;20066;-70
2023/09/27 03:21:09;;;;;;;0.00;0.00;;;14.60;86.10;;;;;;4971611;28;20097;-69
2023/09/27 03:23:35;;;;;;;0.10;0.10;;;14.60;86.10;;;;;;4972403;28;20089;-69
2023/09/27 03:26:01;;;;;;;0.00;0.00;;;14.60;86.10;;;;;;4972346;28;20058;-69
2023/09/27 03:28:27;;;;;;;0.00;0.00;;;14.50;86.10;;;;;;4972068;28;20047;-69
2023/09/27 03:30:52;;;;;;;0.00;0.00;;;14.50;86.10;;;;;;4971479;28;20051;-69
2023/09/27 03:33:18;;;;;;;0.00;0.00;;;14.60;86.10;;;;;;4972828;28;20457;-69
2023/09/27 03:35:44;;;;;;;0.00;0.00;;;14.60;86.10;;;;;;4970558;28;20047;-69
2023/09/27 03:38:11;;;;;;;0.00;0.00;;;14.50;86.10;;;;;;4972322;28;20059;-69
2023/09/27 03:40:39;;;;;;;0.00;0.00;;;14.50;86.10;;;;;;4971099;28;20123;-69
2023/09/27 03:43:05;;;;;;;0.00;0.00;;;14.50;86.10;;;;;;4962201;28;20058;-70
2023/09/27 03:45:35;;;;;;;0.00;0.00;;;14.50;86.00;;;;;;4972612;28;20824;-69
2023/09/27 03:48:02;;;;;;;0.00;0.00;;;14.50;86.20;;;;;;4969449;28;20431;-69
2023/09/27 03:50:28;;;;;;;0.00;0.00;;;14.50;86.20;;;;;;4966237;28;20161;-69
2023/09/27 03:52:57;;;;;;;0.00;0.00;;;14.50;86.20;;;;;;4972247;28;20455;-69
2023/09/27 03:55:23;;;;;;;0.00;0.00;;;14.50;86.20;;;;;;4971743;28;20089;-69
2023/09/27 03:57:48;;;;;;;0.17;0.17;;;14.50;86.30;;;;;;4972202;28;20101;-69
2023/09/27 04:00:16;;;;;;;0.00;0.00;;;14.50;86.30;;;;;;4971873;28;20063;-69
2023/09/27 04:02:42;;;;;;;0.00;0.00;;;14.50;86.40;;;;;;4971572;28;20122;-70
2023/09/27 04:05:09;;;;;;;0.00;0.00;;;14.50;86.60;;;;;;4972227;28;20125;-69
2023/09/27 04:07:35;;;;;;;0.00;0.00;;;14.50;86.60;;;;;;4971483;28;20053;-69
2023/09/27 04:10:01;;;;;;;0.00;0.00;;;14.50;86.70;;;;;;4970956;28;20042;-69
2023/09/27 04:12:27;;;;;;;0.00;0.00;;;14.50;86.80;;;;;;4971855;28;20053;-69
2023/09/27 04:14:52;;;;;;;0.00;0.00;;;14.60;86.80;;;;;;4971491;28;20042;-69
2023/09/27 04:17:18;;;;;;;0.00;0.00;;;14.50;86.90;;;;;;4971507;28;20038;-69
2023/09/27 04:19:44;;;;;;;0.00;0.00;;;14.60;87.00;;;;;;4972290;28;20062;-69
2023/09/27 04:22:09;;;;;;;0.00;0.00;;;14.50;87.00;;;;;;4971566;28;20447;-70
2023/09/27 04:24:35;;;;;;;0.00;0.00;;;14.50;87.00;;;;;;4971270;28;20125;-69
2023/09/27 04:27:00;;;;;;;0.00;0.00;;;14.50;86.80;;;;;;4971328;28;20539;-69
2023/09/27 04:29:26;;;;;;;0.00;0.00;;;14.50;87.10;;;;;;4971718;28;20047;-69
2023/09/27 04:31:52;;;;;;;0.00;0.00;;;14.50;87.20;;;;;;4971423;28;20083;-70
2023/09/27 04:34:18;;;;;;;0.00;0.00;;;14.50;87.40;;;;;;4971795;28;20408;-69
2023/09/27 04:36:47;;;;;;;0.00;0.00;;;14.50;87.40;;;;;;4971293;28;20050;-69
2023/09/27 04:39:14;;;;;;;0.00;0.00;;;14.50;87.50;;;;;;4971643;28;20092;-69
2023/09/27 04:41:39;;;;;;;0.00;0.00;;;14.50;87.50;;;;;;4971199;28;20097;-69
2023/09/27 04:44:06;;;;;;;0.55;0.52;;;14.50;87.70;;;;;;4970299;28;20039;-69
2023/09/27 04:46:32;;;;;;;0.00;0.00;;;14.50;87.60;;;;;;4970638;28;20503;-69
2023/09/27 04:48:58;;;;;;;0.00;0.00;;;14.40;87.60;;;;;;4970931;28;20047;-69
2023/09/27 04:51:24;;;;;;;0.00;0.00;;;14.40;87.60;;;;;;4970566;28;20038;-70
2023/09/27 04:53:50;;;;;;;0.00;0.00;;;14.40;87.60;;;;;;4969427;28;20043;-69
2023/09/27 04:56:15;;;;;;;0.00;0.00;;;14.40;87.70;;;;;;4971145;28;20092;-69
2023/09/27 04:58:41;;;;;;;0.00;0.00;;;14.40;87.80;;;;;;4971117;28;20451;-69
2023/09/27 05:01:07;;;;;;;0.00;0.00;;;14.40;87.90;;;;;;4970633;28;20053;-70
2023/09/27 05:03:33;;;;;;;0.00;0.00;;;14.40;88.00;;;;;;4969950;28;20523;-69
2023/09/27 05:05:58;;;;;;;0.00;0.00;;;14.40;88.00;;;;;;4967385;28;20737;-70
2023/09/27 05:08:26;;;;;;;0.00;0.00;;;14.40;88.10;;;;;;4957796;28;20070;-69
2023/09/27 05:10:52;;;;;;;0.10;0.10;;;14.40;88.30;;;;;;4970154;28;20135;-70
2023/09/27 05:13:21;;;;;;;0.00;0.00;;;14.40;88.40;;;;;;4969938;28;20066;-70
2023/09/27 05:15:52;;;;;;;0.00;0.00;;;14.40;88.30;;;;;;4970476;28;20061;-68
2023/09/27 05:18:18;;;;;;;0.32;0.32;;;14.40;88.20;;;;;;4970091;28;20043;-69
2023/09/27 05:20:43;;;;;;;0.00;0.00;;;14.30;88.10;;;;;;4966357;28;20125;-69
2023/09/27 05:23:10;;;;;;;0.00;0.00;;;14.30;88.10;;;;;;4967389;28;20501;-68
2023/09/27 05:25:36;;;;;;;0.10;0.10;;;14.20;88.10;;;;;;4969320;28;20054;-69
2023/09/27 05:28:01;;;;;;;0.00;0.00;;;14.20;88.00;;;;;;4969747;28;20845;-70
2023/09/27 05:30:27;;;;;;;0.00;0.00;;;14.20;87.80;;;;;;4969231;28;20471;-68
2023/09/27 05:32:53;;;;;;;0.00;0.00;;;14.20;87.80;;;;;;4969662;28;20795;-70
2023/09/27 05:35:19;;;;;;;0.00;0.00;;;14.10;87.70;;;;;;4970374;28;20051;-70
2023/09/27 05:37:44;;;;;;;0.00;0.00;;;14.10;87.70;;;;;;4970466;28;20093;-69
2023/09/27 05:40:11;;;;;;;0.05;0.05;;;14.10;87.90;;;;;;4969306;28;20602;-69
2023/09/27 05:42:40;;;;;;;0.00;0.00;;;14.10;87.80;;;;;;4970052;28;20389;-69
2023/09/27 05:45:07;;;;;;;0.00;0.00;;;14.10;87.80;;;;;;4968990;28;20515;-70
2023/09/27 05:47:33;;;;;;;0.00;0.00;;;14.10;87.70;;;;;;4885491;23;20050;-69
2023/09/27 05:49:59;;;;;;;0.00;0.00;;;14.10;87.70;;;;;;5008006;28;20123;-70
2023/09/27 05:52:25;;;;;;;0.00;0.00;;;14.10;87.70;;;;;;5004112;28;20034;-70
2023/09/27 05:54:51;;;;;;;0.00;0.00;;;14.10;87.60;;;;;;5005778;28;20050;-70
2023/09/27 05:57:17;;;;;;;0.00;0.00;;;14.10;87.60;;;;;;5008239;28;20064;-70
2023/09/27 05:59:44;;;;;;;0.00;0.00;;;14.10;87.70;;;;;;5010567;28;20112;-70
2023/09/27 06:02:16;;;;;;;0.00;0.00;;;14.10;87.60;;;;;;5008586;28;20050;-70
2023/09/27 06:04:46;;;;;;;0.00;0.00;;;14.10;87.70;;;;;;5009823;28;20497;-70
2023/09/27 06:07:14;;;;;;;0.00;0.00;;;14.10;87.60;;;;;;5008918;28;20050;-70
2023/09/27 06:09:44;;;;;;;0.00;0.00;;;14.10;87.50;;;;;;5008626;28;20061;-71
2023/09/27 06:12:10;;;;;;;0.00;0.00;;;14.10;87.40;;;;;;5009980;28;20034;-70
2023/09/27 06:14:36;;;;;;;0.00;0.00;;;14.10;87.50;;;;;;5005587;28;20034;-70
2023/09/27 06:17:02;;;;;;;0.00;0.00;;;14.10;87.60;;;;;;5005934;28;20494;-69
2023/09/27 06:19:30;;;;;;;0.00;0.00;;;14.10;87.60;;;;;;5008908;28;20081;-72
2023/09/27 06:21:55;;;;;;;0.00;0.00;;;14.10;87.70;;;;;;4994907;28;20100;-73
2023/09/27 06:24:21;;;;;;;0.00;0.00;;;14.20;87.70;;;;;;5006084;28;20042;-71
2023/09/27 06:26:47;;;;;;;0.00;0.00;;;14.30;87.80;;;;;;5002628;28;20049;-70
2023/09/27 06:29:13;;;;;;;0.00;0.00;;;14.30;87.80;;;;;;5010233;28;20224;-71
2023/09/27 06:31:38;;;;;;;0.00;0.00;;;14.30;87.70;;;;;;5023442;28;20088;-71
2023/09/27 06:34:04;;;;;;;0.00;0.00;;;14.40;87.80;;;;;;5009644;28;20076;-71
2023/09/27 06:36:34;;;;;;;0.00;0.00;;;14.40;87.90;;;;;;5008511;28;20050;-71
2023/09/27 06:39:00;;;;;;;0.00;0.00;;;14.50;88.00;;;;;;4987449;28;20072;-70
2023/09/27 06:41:26;;;;;;;0.00;0.00;;;14.50;88.00;;;;;;4992951;28;20062;-70
2023/09/27 06:43:53;;;;;;;0.00;0.00;;;14.60;88.00;;;;;;5001461;28;20034;-70
2023/09/27 06:46:19;;;;;;;0.00;0.00;;;14.60;87.90;;;;;;5003100;28;20058;-70
2023/09/27 06:48:45;;;;;;;1.10;0.57;;;14.60;87.90;;;;;;5001516;28;20796;-69
2023/09/27 06:51:13;;;;;;;0.00;0.00;;;14.70;87.90;;;;;;4995394;28;20137;-66
2023/09/27 06:53:39;;;;;;;0.00;0.00;;;14.80;88.00;;;;;;4998023;28;20111;-66
2023/09/27 06:56:06;;;;;;;0.03;0.03;;;14.80;88.00;;;;;;4996479;28;20053;-66
2023/09/27 06:58:32;;;;;;;0.00;0.00;;;14.90;88.30;;;;;;4996340;28;20133;-66
2023/09/27 07:00:58;;;;;;;0.00;0.00;;;15.00;88.30;;;;;;4991924;28;20064;-66
2023/09/27 07:03:24;;;;;;;0.00;0.00;;;15.00;88.20;;;;;;4998398;28;20045;-66
2023/09/27 07:05:54;;;;;;;0.03;0.03;;;15.10;88.30;;;;;;4995928;28;20054;-66
2023/09/27 07:08:20;;;;;;;0.00;0.00;;;15.10;88.30;;;;;;4995238;28;20112;-66
2023/09/27 07:10:46;;;;;;;0.00;0.00;;;15.20;88.50;;;;;;5001326;28;20053;-67
2023/09/27 07:13:12;;;;;;;0.10;0.10;;;15.30;88.40;;;;;;4999300;28;21773;-66
2023/09/27 07:15:38;;;;;;;0.00;0.00;;;15.30;88.70;;;;;;4993358;28;20090;-67
2023/09/27 07:18:04;;;;;;;0.00;0.00;;;15.30;88.70;;;;;;4989158;28;20123;-66
2023/09/27 07:20:34;;;;;;;0.00;0.00;;;15.40;88.60;;;;;;4996813;28;20054;-67
2023/09/27 07:23:03;;;;;;;0.00;0.00;;;15.50;88.90;;;;;;4985646;28;20046;-70
2023/09/27 07:25:32;;;;;;;0.00;0.00;;;15.60;90.20;;;;;;5008403;28;20038;-67
2023/09/27 07:28:00;;;;;;;0.00;0.00;;;15.80;89.80;;;;;;4995894;28;20053;-69
2023/09/27 07:30:26;;;;;;;0.00;0.00;;;15.80;89.60;;;;;;5000462;28;20066;-67
2023/09/27 07:32:56;;;;;;;0.00;0.00;;;15.90;89.40;;;;;;4995674;28;20151;-67
2023/09/27 07:35:23;;;;;;;0.00;0.00;;;15.90;89.50;;;;;;4994809;28;20058;-67
2023/09/27 07:37:49;;;;;;;0.00;0.00;;;15.90;89.70;;;;;;4989554;28;20058;-67
2023/09/27 07:40:15;;;;;;;0.10;0.10;;;15.90;89.50;;;;;;4998669;28;20589;-67
2023/09/27 07:42:43;;;;;;;0.00;0.00;;;16.00;89.40;;;;;;4990960;28;20463;-66
2023/09/27 07:45:46;;;;;;;0.00;0.00;;;16.00;89.30;;;;;;4998597;28;20179;-68
2023/09/27 07:48:03;;;;;;;0.00;0.00;;;16.00;89.30;;;;;;4989618;28;20084;-68
2023/09/27 07:50:31;;;;;;;0.10;0.10;;;16.10;89.50;;;;;;4997319;28;20076;-67
2023/09/27 07:53:03;;;;;;;0.10;0.10;;;16.20;89.60;;;;;;4991270;28;20055;-65
2023/09/27 07:55:32;;;;;;;0.00;0.00;;;16.30;89.70;;;;;;4998715;28;20846;-67
2023/09/27 07:58:01;;;;;;;0.43;0.43;;;16.40;90.10;;;;;;4989002;28;20076;-66
2023/09/27 08:00:29;;;;;;;0.00;0.00;;;16.40;90.60;;;;;;4999984;28;20137;-66
2023/09/27 08:02:57;;;;;;;0.30;0.30;;;16.50;90.70;;;;;;4991247;28;20860;-66
2023/09/27 08:05:23;;;;;;;0.90;0.38;;;16.50;90.90;;;;;;4997885;28;20104;-66
2023/09/27 08:07:49;;;;;;;0.00;0.00;;;16.60;91.10;;;;;;4992064;28;20050;-67
2023/09/27 08:10:15;;;;;;;0.00;0.00;;;16.70;90.90;;;;;;4996967;28;20046;-66
2023/09/27 08:12:42;;;;;;;0.00;0.00;;;16.80;90.80;;;;;;4990518;28;20396;-66
2023/09/27 08:15:09;;;;;;;0.00;0.00;;;16.80;90.90;;;;;;4998777;28;20038;-67
2023/09/27 08:17:35;;;;;;;0.00;0.00;;;16.90;90.80;;;;;;4987231;28;20038;-66
2023/09/27 08:20:05;;;;;;;0.10;0.10;;;17.10;90.80;;;;;;4996314;28;20073;-67
2023/09/27 08:22:33;;;;;;;0.05;0.05;;;17.10;90.60;;;;;;4989672;28;20050;-66
2023/09/27 08:24:59;;;;;;;0.30;0.30;;;17.20;90.60;;;;;;4995719;28;20077;-66
2023/09/27 08:27:25;;;;;;;0.00;0.00;;;17.20;90.40;;;;;;4998719;28;20148;-66
2023/09/27 08:29:51;;;;;;;0.08;0.08;;;17.30;90.40;;;;;;4998979;28;20077;-67
2023/09/27 08:32:16;;;;;;;0.00;0.00;;;17.40;90.20;;;;;;4998718;28;20077;-68
2023/09/27 08:34:42;;;;;;;0.28;0.20;;;17.50;90.20;;;;;;4998247;28;20048;-67
2023/09/27 08:37:11;;;;;;;0.00;0.00;;;17.60;90.00;;;;;;4997440;28;20072;-68
2023/09/27 08:39:37;;;;;;;0.00;0.00;;;17.60;90.00;;;;;;5020749;28;20143;-68
2023/09/27 08:42:03;;;;;;;0.00;0.00;;;17.80;90.00;;;;;;4994442;28;20105;-67
2023/09/27 08:44:30;;;;;;;0.00;0.00;;;17.80;89.90;;;;;;4995659;28;20066;-66
2023/09/27 08:46:56;;;;;;;0.10;0.10;;;17.80;89.80;;;;;;4997069;28;20057;-66
2023/09/27 08:49:24;;;;;;;0.00;0.00;;;17.90;89.80;;;;;;4991443;28;20144;-67
2023/09/27 08:51:51;;;;;;;0.00;0.00;;;18.00;89.50;;;;;;4994981;28;20053;-66
2023/09/27 08:54:19;;;;;;;0.00;0.00;;;18.00;89.40;;;;;;4963039;28;20058;-66
2023/09/27 08:56:51;;;;;;;0.20;0.20;;;18.00;89.40;;;;;;4994274;28;20053;-66
2023/09/27 08:59:19;;;;;;;0.10;0.10;;;18.10;89.50;;;;;;4967082;28;20058;-66
2023/09/27 09:01:46;;;;;;;0.45;0.45;;;18.10;89.60;;;;;;4996449;28;20042;-67
2023/09/27 09:04:14;;;;;;;0.00;0.00;;;18.20;89.80;;;;;;4964293;28;20122;-67
2023/09/27 09:06:41;;;;;;;2.10;1.65;;;18.20;89.60;;;;;;4992115;28;20053;-66
2023/09/27 09:09:11;;;;;;;0.00;0.00;;;18.30;89.50;;;;;;4986518;28;20142;-66
2023/09/27 09:11:47;;;;;;;0.00;0.00;;;18.40;89.30;;;;;;4981087;28;20097;-66
2023/09/27 09:14:23;;;;;;;0.10;0.10;;;18.50;89.40;;;;;;4975053;28;20632;-66
2023/09/27 09:16:52;;;;;;;0.45;0.25;;;18.60;89.40;;;;;;4979772;28;20128;-66
2023/09/27 09:19:22;;;;;;;0.00;0.00;;;18.70;89.20;;;;;;4978473;28;20066;-67
2023/09/27 09:22:00;;;;;;;0.00;0.00;;;18.80;89.00;;;;;;4998566;28;20066;-67
2023/09/27 09:24:26;;;;;;;0.00;0.00;;;18.80;88.80;;;;;;4985384;28;20046;-67
2023/09/27 09:27:12;;;;;;;0.00;0.00;;;18.90;88.70;;;;;;4985146;28;20049;-67
2023/09/27 09:29:46;;;;;;;0.20;0.20;;;19.00;88.40;;;;;;4986066;28;20085;-66
2023/09/27 09:32:23;;;;;;;0.00;0.00;;;19.10;88.30;;;;;;4983338;28;20061;-67
2023/09/27 09:34:52;;;;;;;0.10;0.10;;;19.10;88.20;;;;;;4983035;28;20050;-67
2023/09/27 09:37:23;;;;;;;0.00;0.00;;;19.10;88.10;;;;;;4982374;28;20707;-67
2023/09/27 09:39:52;;;;;;;0.00;0.00;;;19.10;87.70;;;;;;4954361;28;20058;-67
2023/09/27 09:42:32;;;;;;;0.20;0.20;;;19.10;87.80;;;;;;4992093;28;20790;-67
2023/09/27 09:45:06;;;;;;;0.10;0.10;;;19.20;87.70;;;;;;4977657;28;20409;-67
2023/09/27 09:47:43;;;;;;;0.00;0.00;;;19.20;87.60;;;;;;4981839;28;20173;-67
2023/09/27 09:50:17;;;;;;;0.70;0.70;;;19.30;87.60;;;;;;4974688;28;21030;-66
2023/09/27 09:52:58;;;;;;;0.10;0.10;;;19.30;87.40;;;;;;4980673;28;20066;-67
2023/09/27 09:55:26;;;;;;;0.05;0.05;;;19.30;87.30;;;;;;4977084;28;20109;-71
2023/09/27 09:58:17;;;;;;;2.95;0.22;;;19.30;87.10;;;;;;4976344;28;20054;-65
2023/09/27 10:00:49;;;;;;;0.00;0.00;;;19.20;87.20;;;;;;5010433;28;20140;-67
2023/09/27 10:03:20;;;;;;;0.00;0.00;;;19.20;87.10;;;;;;5017176;28;20055;-66
2023/09/27 10:05:49;;;;;;;0.28;0.28;;;19.10;87.20;;;;;;5018004;28;20140;-66
2023/09/27 10:08:17;;;;;;;0.30;0.30;;;19.10;87.20;;;;;;5024134;28;20557;-66
2023/09/27 10:10:43;;;;;;;0.15;0.15;;;19.10;87.30;;;;;;5021769;28;20051;-65
2023/09/27 10:13:10;;;;;;;0.00;0.00;;;19.10;87.40;;;;;;5027083;28;20045;-64
2023/09/27 10:15:37;;;;;;;0.00;0.00;;;19.10;87.40;;;;;;5023499;28;20037;-64
2023/09/27 10:18:21;;;;;;;0.15;0.15;;;19.10;87.30;;;;;;5036510;28;20057;-64
2023/09/27 10:21:04;;;;;;;0.00;0.00;;;19.20;87.30;;;;;;5021776;28;20050;-63
2023/09/27 10:23:53;;;;;;;0.10;0.10;;;19.20;87.20;;;;;;5018391;28;20092;-64
2023/09/27 10:26:28;;;;;;;0.00;0.00;;;19.20;87.10;;;;;;5004443;28;20455;-65
2023/09/27 10:31:57;;;;;;;0.00;0.00;;;19.20;86.90;;;;;;5007643;28;20058;-64
2023/09/27 10:34:29;;;;;;;0.08;0.08;;;19.30;86.90;;;;;;5016288;28;20049;-64
2023/09/27 10:36:59;;;;;;;0.20;0.20;;;19.20;86.60;;;;;;5021735;28;20058;-64
2023/09/27 10:39:25;;;;;;;0.00;0.00;;;19.30;86.70;;;;;;5017332;28;20061;-65
2023/09/27 10:41:52;;;;;;;0.00;0.00;;;19.30;86.80;;;;;;5016462;28;20048;-61
2023/09/27 10:44:31;;;;;;;0.00;0.00;;;19.40;86.70;;;;;;5018821;28;20057;-64
2023/09/27 10:47:01;;;;;;;0.00;0.00;;;19.40;86.60;;;;;;5020400;28;20849;-64
2023/09/27 10:49:37;;;;;;;1.17;0.98;;;19.50;86.40;;;;;;5022903;28;20076;-64
2023/09/27 10:52:03;;;;;;;0.00;0.00;;;19.50;86.30;;;;;;5017556;28;20049;-64
2023/09/27 10:54:29;;;;;;;0.00;0.00;;;19.50;86.10;;;;;;5021959;28;20143;-64
2023/09/27 10:56:56;;;;;;;0.03;0.03;;;19.50;86.20;;;;;;5007513;28;20457;-64
2023/09/27 10:59:25;;;;;;;0.22;0.22;;;19.60;86.10;;;;;;5029981;28;21915;-64
2023/09/27 11:01:52;;;;;;;0.10;0.10;;;19.60;85.90;;;;;;5026290;28;20040;-65
2023/09/27 11:04:23;;;;;;;0.00;0.00;;;19.50;85.50;;;;;;5018235;28;20400;-64
2023/09/27 11:06:49;;;;;;;0.05;0.05;;;19.50;85.60;;;;;;5006792;28;20052;-64
2023/09/27 11:09:19;;;;;;;0.90;0.90;;;19.50;85.60;;;;;;5027797;28;20044;-61
2023/09/27 11:11:49;;;;;;;0.03;0.03;;;19.60;85.60;;;;;;5020340;28;20060;-61
2023/09/27 11:14:32;;;;;;;0.00;0.00;;;19.60;85.50;;;;;;5027244;28;20069;-61
2023/09/27 11:17:23;;;;;;;0.00;0.00;;;19.70;85.20;;;;;;5026925;28;20045;-65
2023/09/27 11:19:50;;;;;;;0.00;0.00;;;19.80;85.10;;;;;;5010240;28;20061;-64
2023/09/27 11:22:26;;;;;;;0.00;0.00;;;19.90;85.20;;;;;;5027749;28;20055;-64
2023/09/27 11:24:51;;;;;;;0.00;0.00;;;19.80;85.00;;;;;;5023337;28;20037;-64
2023/09/27 11:27:19;;;;;;;0.00;0.00;;;19.80;84.80;;;;;;5019519;28;20053;-65
2023/09/27 11:29:51;;;;;;;2.10;1.00;;;19.80;84.90;;;;;;5022756;28;20053;-64
2023/09/27 11:32:16;;;;;;;0.00;0.00;;;19.80;85.00;;;;;;5018985;28;20057;-64
2023/09/27 11:34:42;;;;;;;0.00;0.00;;;19.80;85.00;;;;;;5024547;28;20041;-64
2023/09/27 11:37:17;;;;;;;0.88;0.73;;;19.80;84.90;;;;;;5018876;28;20501;-65
2023/09/27 11:39:51;;;;;;;1.25;1.00;;;19.80;85.10;;;;;;5024928;28;20041;-64
2023/09/27 11:42:26;;;;;;;0.10;0.10;;;19.80;85.20;;;;;;5020244;28;20057;-65
2023/09/27 11:45:09;;;;;;;0.00;0.00;;;19.90;85.20;;;;;;5018550;28;20048;-65
2023/09/27 11:47:48;;;;;;;0.10;0.10;;;20.00;85.20;;;;;;5022329;28;20149;-65
2023/09/27 11:50:19;;;;;;;0.00;0.00;;;20.00;85.00;;;;;;5024192;28;20091;-65
2023/09/27 11:52:46;;;;;;;0.00;0.00;;;20.10;85.00;;;;;;5019732;28;20045;-66
2023/09/27 11:55:16;;;;;;;0.10;0.10;;;20.20;84.80;;;;;;5039288;28;20228;-65
2023/09/27 11:57:42;;;;;;;0.00;0.00;;;20.20;84.20;;;;;;5017148;28;20046;-66
2023/09/27 12:00:10;;;;;;;0.25;0.25;;;20.20;83.00;;;;;;5021856;28;20041;-65
2023/09/27 12:02:36;;;;;;;0.30;0.30;;;20.30;83.30;;;;;;5021723;28;20192;-67
2023/09/27 12:05:04;;;;;;;0.00;0.00;;;20.40;83.50;;;;;;5025062;28;20041;-65
2023/09/27 12:07:30;;;;;;;0.00;0.00;;;20.50;83.50;;;;;;5019620;28;20251;-65
2023/09/27 12:09:56;;;;;;;0.65;0.43;;;20.80;83.40;;;;;;5027157;28;20402;-65
2023/09/27 12:12:22;;;;;;;0.00;0.00;;;20.90;83.40;;;;;;5025689;28;20046;-65
2023/09/27 12:14:49;;;;;;;0.85;0.60;;;20.90;83.00;;;;;;5026155;28;20030;-65
2023/09/27 12:17:15;;;;;;;0.00;0.00;;;21.10;82.70;;;;;;5019468;28;20069;-65
2023/09/27 12:19:42;;;;;;;0.10;0.10;;;21.20;82.70;;;;;;5018676;28;20046;-65
2023/09/27 12:22:08;;;;;;;0.00;0.00;;;21.30;81.90;;;;;;5017480;28;20041;-65
2023/09/27 12:24:34;;;;;;;0.00;0.00;;;21.50;80.80;;;;;;5025803;28;20053;-65
2023/09/27 12:26:59;;;;;;;0.10;0.10;;;21.60;80.40;;;;;;5018498;28;20118;-64
2023/09/27 12:29:25;;;;;;;0.00;0.00;;;21.70;80.80;;;;;;5024258;28;20153;-65
2023/09/27 12:31:50;;;;;;;0.00;0.00;;;21.80;79.30;;;;;;5019921;28;20041;-65
2023/09/27 12:34:16;;;;;;;0.00;0.00;;;22.00;79.90;;;;;;5024400;28;20107;-65
2023/09/27 12:36:42;;;;;;;0.00;0.00;;;22.10;79.50;;;;;;5019411;28;20041;-65
2023/09/27 12:39:07;;;;;;;0.00;0.00;;;22.10;79.50;;;;;;5020303;28;20049;-66
2023/09/27 12:41:33;;;;;;;0.00;0.00;;;22.30;79.90;;;;;;5021685;28;20103;-65
2023/09/27 12:44:00;;;;;;;2.55;1.17;;;22.40;80.20;;;;;;5021664;28;20060;-66
2023/09/27 12:46:26;;;;;;;0.00;0.00;;;22.40;78.50;;;;;;5025738;28;20502;-66
2023/09/27 12:48:51;;;;;;;0.00;0.00;;;22.50;77.20;;;;;;5027258;28;20060;-65
2023/09/27 12:51:17;;;;;;;0.10;0.10;;;22.50;78.40;;;;;;5018414;28;20076;-65
2023/09/27 12:53:43;;;;;;;0.00;0.00;;;22.60;78.20;;;;;;5022857;28;20511;-65